Time;durP1;ratioP1;P1;durP2;ratioP2;P2;SDS_P1;SDS_P2;PMS_P1;PMS_P2;Temp;Humidity;BMP_temperature;BMP_pressure;BME280_temperature;BME280_humidity;BME280_pressure;Samples;Min_cycle;Max_cycle;Signal;HPM_P1;HPM_P2
2024/03/28 00:00:15;;;;;;;0.60;0.40;;;12.00;52.70;;;;;;6294184;28;20142;-76
2024/03/28 00:03:16;;;;;;;8.20;0.43;;;12.10;51.70;;;;;;6318794;28;20452;-75
2024/03/28 00:06:16;;;;;;;0.20;0.20;;;12.30;50.30;;;;;;6302925;28;20023;-75
2024/03/28 00:09:17;;;;;;;3.63;0.30;;;12.50;49.80;;;;;;6304323;28;20044;-76
2024/03/28 00:12:18;;;;;;;2.10;0.50;;;12.80;47.60;;;;;;6317042;28;20024;-76
2024/03/28 00:15:22;;;;;;;0.22;0.20;;;13.00;47.60;;;;;;6328537;28;20806;-74
2024/03/28 00:18:25;;;;;;;0.10;0.10;;;13.30;46.40;;;;;;6323279;28;20016;-75
2024/03/28 00:21:26;;;;;;;1.45;0.28;;;13.40;45.80;;;;;;6290561;28;20040;-76
2024/03/28 00:24:27;;;;;;;1.08;0.57;;;13.60;44.20;;;;;;6302749;28;20098;-75
2024/03/28 00:27:28;;;;;;;0.45;0.30;;;13.80;43.80;;;;;;6310691;28;20032;-76
2024/03/28 00:30:30;;;;;;;0.10;0.10;;;14.00;43.90;;;;;;6311524;28;20414;-75
2024/03/28 00:33:31;;;;;;;0.30;0.30;;;14.10;43.60;;;;;;6309737;28;20038;-75
2024/03/28 00:36:33;;;;;;;0.13;0.13;;;14.20;42.90;;;;;;6301334;28;20432;-76
2024/03/28 00:39:34;;;;;;;0.30;0.20;;;14.30;42.50;;;;;;6309056;28;20176;-75
2024/03/28 00:42:35;;;;;;;0.32;0.30;;;14.30;42.30;;;;;;6294286;28;20440;-77
2024/03/28 00:45:35;;;;;;;0.20;0.20;;;14.40;42.20;;;;;;6311573;28;20112;-76
2024/03/28 00:48:36;;;;;;;0.20;0.20;;;14.40;41.30;;;;;;6300339;28;20516;-75
2024/03/28 00:51:37;;;;;;;0.30;0.30;;;14.50;40.80;;;;;;6287543;28;20104;-75
2024/03/28 00:54:38;;;;;;;0.95;0.30;;;14.60;41.00;;;;;;6305663;28;20008;-76
2024/03/28 00:57:39;;;;;;;0.20;0.20;;;14.60;41.00;;;;;;6310685;28;20678;-75
2024/03/28 01:00:46;;;;;;;0.20;0.20;;;14.60;39.90;;;;;;6315595;28;20024;-76
2024/03/28 01:03:47;;;;;;;0.15;0.15;;;14.70;40.00;;;;;;6306654;28;20471;-75
2024/03/28 01:06:48;;;;;;;0.20;0.10;;;14.70;39.80;;;;;;6296902;28;20032;-75
2024/03/28 01:09:50;;;;;;;0.38;0.30;;;14.80;39.40;;;;;;6300290;28;20068;-75
2024/03/28 01:12:51;;;;;;;0.50;0.30;;;14.80;38.80;;;;;;6306729;28;20004;-75
2024/03/28 01:15:52;;;;;;;1.92;0.30;;;14.90;38.20;;;;;;6283586;28;20461;-75
2024/03/28 01:18:52;;;;;;;0.13;0.13;;;14.90;38.20;;;;;;6278375;28;20044;-76
2024/03/28 01:21:53;;;;;;;0.30;0.30;;;15.00;38.10;;;;;;6307537;28;20016;-74
2024/03/28 01:24:54;;;;;;;0.10;0.10;;;15.00;38.50;;;;;;6306905;28;20460;-74
2024/03/28 01:27:55;;;;;;;2.13;0.50;;;15.00;38.00;;;;;;6284172;28;20464;-74
2024/03/28 01:31:01;;;;;;;0.22;0.20;;;15.00;37.60;;;;;;6318756;28;20012;-74
2024/03/28 01:34:02;;;;;;;1.60;0.32;;;15.00;38.20;;;;;;6308421;28;20008;-76
2024/03/28 01:37:03;;;;;;;2.65;0.60;;;15.00;38.40;;;;;;6292061;28;20514;-75
2024/03/28 01:40:05;;;;;;;2.20;0.50;;;15.10;38.70;;;;;;6309728;28;20020;-75
2024/03/28 01:43:05;;;;;;;1.52;0.60;;;15.00;39.30;;;;;;6307857;28;20479;-75
2024/03/28 01:46:07;;;;;;;1.75;0.70;;;15.00;40.40;;;;;;6305038;28;20031;-76
2024/03/28 01:49:09;;;;;;;1.77;0.70;;;14.60;41.20;;;;;;6303898;28;20038;-75
2024/03/28 01:52:12;;;;;;;0.55;0.55;;;14.40;41.90;;;;;;6304008;28;20024;-76
2024/03/28 01:55:13;;;;;;;1.38;0.80;;;14.30;42.60;;;;;;6310903;28;20064;-75
2024/03/28 01:58:14;;;;;;;1.15;0.60;;;14.20;42.90;;;;;;6282455;28;20026;-75
2024/03/28 02:01:15;;;;;;;0.60;0.50;;;14.10;43.30;;;;;;6311031;28;20028;-76
2024/03/28 02:04:17;;;;;;;0.77;0.40;;;14.00;43.60;;;;;;6283922;28;20093;-75
2024/03/28 02:07:18;;;;;;;2.50;0.77;;;14.00;44.60;;;;;;6315227;28;20047;-76
2024/03/28 02:10:19;;;;;;;5.13;1.02;;;14.00;44.20;;;;;;6313165;28;20368;-75
2024/03/28 02:13:20;;;;;;;1.35;0.98;;;13.90;44.50;;;;;;6313651;28;20031;-75
2024/03/28 02:16:21;;;;;;;0.90;0.57;;;13.80;44.90;;;;;;6290648;28;20016;-74
2024/03/28 02:19:22;;;;;;;1.10;0.80;;;13.80;45.40;;;;;;6313286;28;20535;-75
2024/03/28 02:22:23;;;;;;;1.83;0.93;;;13.80;45.40;;;;;;6309535;28;20063;-75
2024/03/28 02:25:24;;;;;;;1.20;0.95;;;13.70;45.60;;;;;;6296333;28;20368;-74
2024/03/28 02:28:25;;;;;;;4.93;1.00;;;13.70;45.80;;;;;;6281273;28;20028;-75
2024/03/28 02:31:26;;;;;;;1.80;1.02;;;13.60;46.00;;;;;;6306190;28;20349;-74
2024/03/28 02:34:27;;;;;;;1.58;0.85;;;13.50;46.50;;;;;;6299389;28;20129;-78
2024/03/28 02:37:28;;;;;;;1.05;0.82;;;13.40;47.10;;;;;;6302724;28;20444;-76
2024/03/28 02:40:28;;;;;;;1.15;0.90;;;13.30;47.70;;;;;;6301779;28;20417;-75
2024/03/28 02:43:30;;;;;;;2.67;1.48;;;13.10;48.20;;;;;;6315487;28;20027;-75
2024/03/28 02:46:31;;;;;;;4.43;1.35;;;13.00;48.70;;;;;;6315803;28;20060;-75
2024/03/28 02:49:32;;;;;;;3.03;0.98;;;12.90;49.10;;;;;;6308887;28;20040;-74
2024/03/28 02:52:32;;;;;;;3.70;1.58;;;12.80;49.50;;;;;;6306828;28;20007;-75
2024/03/28 02:55:33;;;;;;;2.03;1.33;;;12.70;49.70;;;;;;6309196;28;20433;-76
2024/03/28 02:58:34;;;;;;;1.60;1.02;;;12.70;50.00;;;;;;6319812;28;20085;-75
2024/03/28 03:01:35;;;;;;;2.90;1.80;;;12.60;50.30;;;;;;6293220;28;20088;-73
2024/03/28 03:04:36;;;;;;;3.17;1.40;;;12.50;50.70;;;;;;6306101;28;20580;-76
2024/03/28 03:07:37;;;;;;;1.77;1.10;;;12.40;51.00;;;;;;6320919;28;20166;-74
2024/03/28 03:10:37;;;;;;;1.70;1.10;;;12.30;51.40;;;;;;6301386;28;20046;-75
2024/03/28 03:13:38;;;;;;;2.30;1.27;;;12.10;51.80;;;;;;6317368;28;20644;-75
2024/03/28 03:16:39;;;;;;;1.77;1.48;;;12.10;52.10;;;;;;6305275;28;20020;-75
2024/03/28 03:19:40;;;;;;;3.33;1.67;;;11.90;52.40;;;;;;6311546;28;20130;-75
2024/03/28 03:22:48;;;;;;;1.45;1.08;;;11.90;52.90;;;;;;6313961;28;20582;-75
2024/03/28 03:25:59;;;;;;;;;;;11.70;53.10;;;;;;6297141;28;20120;-75
2024/03/28 03:35:39;;;;;;;3.00;1.02;;;11.50;54.00;;;;;;6305243;28;20366;-74
2024/03/28 03:38:40;;;;;;;1.35;1.15;;;11.50;54.20;;;;;;6311969;28;20027;-76
2024/03/28 03:41:41;;;;;;;2.10;1.10;;;11.50;54.20;;;;;;6311261;28;20140;-75
2024/03/28 03:44:41;;;;;;;4.97;1.95;;;11.60;54.40;;;;;;6293569;28;20016;-74
2024/03/28 03:47:42;;;;;;;2.35;1.60;;;11.60;54.40;;;;;;6332572;28;20063;-75
2024/03/28 03:50:43;;;;;;;4.88;1.55;;;11.60;54.50;;;;;;6311901;28;20047;-76
2024/03/28 03:53:44;;;;;;;2.08;1.17;;;11.60;54.50;;;;;;6308007;28;20668;-74
2024/03/28 03:56:45;;;;;;;1.98;1.50;;;11.60;54.50;;;;;;6317202;28;20170;-74
2024/03/28 03:59:46;;;;;;;3.03;1.25;;;11.70;54.60;;;;;;6316908;28;20012;-75
2024/03/28 04:02:47;;;;;;;2.45;1.27;;;11.70;54.60;;;;;;6305155;28;20020;-75
2024/03/28 04:05:49;;;;;;;2.28;1.00;;;11.80;54.60;;;;;;6307638;28;20158;-74
2024/03/28 04:08:50;;;;;;;1.65;1.50;;;11.80;54.70;;;;;;6319434;28;20065;-74
2024/03/28 04:11:51;;;;;;;2.40;1.50;;;11.80;54.70;;;;;;6310674;28;20035;-74
2024/03/28 04:14:52;;;;;;;1.48;1.25;;;11.80;54.80;;;;;;6305969;28;20321;-74
2024/03/28 04:17:53;;;;;;;4.93;1.50;;;11.80;54.80;;;;;;6321706;28;20515;-74
2024/03/28 04:20:54;;;;;;;2.47;1.33;;;11.90;54.90;;;;;;6311169;28;20125;-75
2024/03/28 04:23:58;;;;;;;1.08;0.82;;;12.00;55.00;;;;;;6304394;28;20039;-74
2024/03/28 04:26:59;;;;;;;7.07;1.15;;;12.10;54.90;;;;;;6291151;28;20463;-75
2024/03/28 04:29:59;;;;;;;0.55;0.55;;;12.20;54.80;;;;;;6318594;28;20040;-74
2024/03/28 04:33:00;;;;;;;2.20;1.23;;;12.30;54.60;;;;;;6301619;28;20024;-75
2024/03/28 04:36:01;;;;;;;1.10;0.80;;;12.50;54.40;;;;;;6309152;28;20111;-75
2024/03/28 04:39:02;;;;;;;1.77;0.93;;;12.70;54.20;;;;;;6309662;28;20036;-75
2024/03/28 04:42:03;;;;;;;2.88;1.55;;;12.80;53.90;;;;;;6310427;28;20019;-75
2024/03/28 04:45:05;;;;;;;0.75;0.65;;;13.00;53.70;;;;;;6307191;28;20039;-75
2024/03/28 04:48:06;;;;;;;3.95;0.90;;;13.00;53.20;;;;;;6319342;28;20527;-76
2024/03/28 04:51:07;;;;;;;1.67;1.20;;;13.10;53.00;;;;;;6311817;28;20040;-75
2024/03/28 04:54:07;;;;;;;2.22;0.88;;;13.10;53.10;;;;;;6315068;28;20031;-75
2024/03/28 04:57:08;;;;;;;0.90;0.65;;;13.20;53.20;;;;;;6321628;28;20417;-75
2024/03/28 05:00:10;;;;;;;1.63;0.65;;;13.30;53.20;;;;;;6300920;28;20024;-74
2024/03/28 05:03:13;;;;;;;1.45;0.70;;;13.40;53.30;;;;;;6312250;28;20033;-75
2024/03/28 05:06:14;;;;;;;2.50;1.02;;;13.60;53.30;;;;;;6304531;28;20016;-75
2024/03/28 05:09:15;;;;;;;1.65;0.90;;;13.60;53.30;;;;;;6321027;28;20115;-76
2024/03/28 05:12:16;;;;;;;1.67;0.90;;;13.60;53.50;;;;;;6311609;28;20016;-75
2024/03/28 05:15:17;;;;;;;2.67;0.82;;;13.70;53.80;;;;;;6305935;28;20451;-75
2024/03/28 05:18:18;;;;;;;1.55;0.77;;;13.60;54.00;;;;;;6318101;28;20483;-75
2024/03/28 05:21:20;;;;;;;2.25;0.75;;;13.60;54.80;;;;;;6323374;28;20072;-76
2024/03/28 05:24:21;;;;;;;1.60;0.77;;;13.50;56.20;;;;;;6289558;28;20078;-76
2024/03/28 05:27:22;;;;;;;0.43;0.40;;;13.40;57.60;;;;;;6296044;28;20387;-76
2024/03/28 05:30:23;;;;;;;0.98;0.60;;;13.30;58.60;;;;;;6309124;28;20080;-74
2024/03/28 05:33:24;;;;;;;1.92;0.50;;;13.20;60.00;;;;;;6293581;28;20027;-76
2024/03/28 05:36:25;;;;;;;1.08;0.60;;;13.00;62.00;;;;;;6294966;28;20102;-75
2024/03/28 05:39:27;;;;;;;2.85;0.40;;;13.00;63.30;;;;;;6291351;28;20637;-74
2024/03/28 05:42:28;;;;;;;1.42;0.43;;;12.90;64.60;;;;;;6293014;28;20123;-78
2024/03/28 05:45:29;;;;;;;0.10;0.10;;;12.90;65.50;;;;;;6293506;28;20111;-75
2024/03/28 05:48:29;;;;;;;0.25;0.20;;;12.80;66.40;;;;;;6291548;28;20127;-77
2024/03/28 05:51:30;;;;;;;2.47;0.25;;;12.80;66.80;;;;;;6275672;28;20472;-75
2024/03/28 05:54:31;;;;;;;0.30;0.20;;;12.80;67.00;;;;;;6295137;28;20023;-76
2024/03/28 05:57:32;;;;;;;0.10;0.10;;;12.80;67.30;;;;;;6295669;28;20496;-76
2024/03/28 06:00:33;;;;;;;0.10;0.10;;;12.80;67.20;;;;;;6295807;28;20026;-76
2024/03/28 06:03:34;;;;;;;0.10;0.10;;;12.80;67.20;;;;;;6274923;28;20040;-74
2024/03/28 06:06:34;;;;;;;0.30;0.30;;;12.80;67.30;;;;;;6296175;28;20016;-75
2024/03/28 06:09:35;;;;;;;0.28;0.25;;;12.90;67.60;;;;;;6293916;28;20040;-76
2024/03/28 06:12:36;;;;;;;4.18;0.40;;;12.90;67.70;;;;;;6293174;28;20043;-76
2024/03/28 06:15:37;;;;;;;0.30;0.28;;;13.00;67.70;;;;;;6293094;28;20024;-76
2024/03/28 06:18:38;;;;;;;0.82;0.30;;;13.10;67.80;;;;;;6295165;28;20019;-75
2024/03/28 06:21:39;;;;;;;2.60;0.45;;;13.20;67.80;;;;;;6294963;28;20152;-75
2024/03/28 06:24:39;;;;;;;1.08;0.30;;;13.30;68.00;;;;;;6294022;28;20500;-77
2024/03/28 06:27:40;;;;;;;0.30;0.20;;;13.30;68.00;;;;;;6273847;28;20105;-75
2024/03/28 06:30:43;;;;;;;0.25;0.25;;;13.40;68.30;;;;;;6298134;28;20859;-74
2024/03/28 06:33:49;;;;;;;0.73;0.30;;;13.40;68.50;;;;;;6317546;28;20008;-74
2024/03/28 06:36:50;;;;;;;0.70;0.22;;;13.40;68.60;;;;;;6298085;28;20089;-75
2024/03/28 06:39:54;;;;;;;1.75;0.65;;;13.50;68.80;;;;;;6302173;28;20032;-75
2024/03/28 06:42:55;;;;;;;2.47;0.40;;;13.50;68.80;;;;;;6300041;28;20024;-76
2024/03/28 06:45:56;;;;;;;0.98;0.80;;;13.60;68.90;;;;;;6304063;28;20062;-77
2024/03/28 06:48:57;;;;;;;1.25;0.75;;;13.70;69.00;;;;;;6287917;28;20085;-74
2024/03/28 06:51:58;;;;;;;3.25;1.25;;;13.70;68.90;;;;;;6311780;28;20107;-76
2024/03/28 06:54:58;;;;;;;3.22;1.40;;;13.70;68.90;;;;;;6320035;28;20022;-76
2024/03/28 06:58:00;;;;;;;8.25;2.08;;;13.70;69.00;;;;;;6308818;28;20031;-77
2024/03/28 07:01:03;;;;;;;3.97;2.22;;;13.70;68.80;;;;;;6328815;28;20124;-76
2024/03/28 07:04:04;;;;;;;3.80;2.55;;;13.60;68.60;;;;;;6325161;28;20032;-76
2024/03/28 07:07:05;;;;;;;7.38;2.83;;;13.60;68.90;;;;;;6312836;28;20038;-75
2024/03/28 07:10:09;;;;;;;9.45;3.00;;;13.50;68.80;;;;;;6313532;28;20040;-74
2024/03/28 07:13:10;;;;;;;5.70;3.03;;;13.40;68.60;;;;;;6320498;28;20098;-75
2024/03/28 07:16:11;;;;;;;5.32;2.90;;;13.40;68.60;;;;;;6319767;28;20022;-76
2024/03/28 07:19:11;;;;;;;6.03;3.00;;;13.30;68.50;;;;;;6304419;28;20406;-75
2024/03/28 07:22:12;;;;;;;5.95;3.08;;;13.30;68.80;;;;;;6317847;28;20047;-76
2024/03/28 07:25:13;;;;;;;4.82;2.63;;;13.30;69.10;;;;;;6301268;28;20073;-75
2024/03/28 07:28:14;;;;;;;2.85;2.15;;;13.30;69.30;;;;;;6308682;28;20143;-76
2024/03/28 07:31:15;;;;;;;2.65;1.50;;;13.40;69.70;;;;;;6306528;28;20016;-77
2024/03/28 07:34:16;;;;;;;3.78;2.17;;;13.40;69.70;;;;;;6314903;28;20111;-75
2024/03/28 07:37:17;;;;;;;5.97;2.42;;;13.50;69.70;;;;;;6316767;28;20444;-75
2024/03/28 07:40:17;;;;;;;3.67;2.55;;;13.60;69.70;;;;;;6302168;28;20055;-74
2024/03/28 07:43:18;;;;;;;5.75;3.33;;;13.60;69.60;;;;;;6313671;28;20073;-76
2024/03/28 07:46:19;;;;;;;12.70;2.55;;;13.60;69.50;;;;;;6291177;28;20384;-75
2024/03/28 07:49:21;;;;;;;11.45;3.40;;;13.70;69.60;;;;;;6282272;28;20473;-76
2024/03/28 07:52:21;;;;;;;6.25;2.53;;;13.70;69.50;;;;;;6316559;28;20116;-76
2024/03/28 07:55:22;;;;;;;4.00;2.60;;;13.70;69.70;;;;;;6312271;28;20008;-74
2024/03/28 07:58:25;;;;;;;4.32;2.80;;;13.80;69.90;;;;;;6320256;28;20244;-77
2024/03/28 08:01:26;;;;;;;6.80;2.55;;;13.80;69.70;;;;;;6311989;28;20538;-76
2024/03/28 08:04:28;;;;;;;6.05;1.92;;;13.90;69.40;;;;;;6320887;28;20183;-76
2024/03/28 08:07:29;;;;;;;4.78;2.30;;;13.90;68.80;;;;;;6313190;28;20472;-76
2024/03/28 08:10:31;;;;;;;7.63;3.05;;;13.80;68.10;;;;;;6295692;28;20043;-75
2024/03/28 08:13:32;;;;;;;5.95;2.63;;;13.80;68.50;;;;;;6321556;28;20078;-76
2024/03/28 08:16:33;;;;;;;6.00;3.20;;;13.80;68.60;;;;;;6290609;28;20165;-75
2024/03/28 08:19:34;;;;;;;2.60;1.98;;;13.80;68.90;;;;;;6307544;28;20069;-77
2024/03/28 08:22:35;;;;;;;5.50;2.53;;;13.90;68.70;;;;;;6325093;28;20091;-75
2024/03/28 08:25:36;;;;;;;5.55;2.45;;;14.00;68.70;;;;;;6319165;28;20167;-76
2024/03/28 08:28:37;;;;;;;3.33;2.05;;;14.00;68.80;;;;;;6313623;28;20133;-75
2024/03/28 08:31:39;;;;;;;12.35;2.25;;;14.10;68.60;;;;;;6307415;28;20045;-76
2024/03/28 08:34:41;;;;;;;5.93;2.33;;;14.20;68.60;;;;;;6294511;28;20064;-75
2024/03/28 08:37:43;;;;;;;6.45;2.50;;;14.20;68.10;;;;;;6282746;28;20095;-76
2024/03/28 08:40:44;;;;;;;7.45;2.78;;;14.10;67.60;;;;;;6302242;28;20077;-76
2024/03/28 08:43:48;;;;;;;9.10;2.28;;;13.90;67.00;;;;;;6322825;28;20482;-75
2024/03/28 08:46:48;;;;;;;4.40;2.22;;;13.90;67.80;;;;;;6302222;28;20020;-75
2024/03/28 08:49:49;;;;;;;10.23;2.63;;;13.80;68.30;;;;;;6289621;28;20082;-76
2024/03/28 08:52:52;;;;;;;13.85;2.63;;;13.80;68.40;;;;;;6318520;28;20156;-76
2024/03/28 08:55:52;;;;;;;5.85;3.03;;;13.80;67.80;;;;;;6312905;28;20017;-77
2024/03/28 08:58:55;;;;;;;19.17;3.40;;;13.70;67.90;;;;;;6291614;28;20442;-77
2024/03/28 09:01:55;;;;;;;2.63;1.88;;;13.70;68.20;;;;;;6319630;28;20118;-75
2024/03/28 09:04:56;;;;;;;10.32;3.53;;;13.80;68.30;;;;;;6315149;28;20427;-76
2024/03/28 09:07:57;;;;;;;6.32;3.20;;;13.80;68.20;;;;;;6311107;28;20047;-76
2024/03/28 09:10:58;;;;;;;8.18;4.43;;;13.90;68.30;;;;;;6309582;28;20015;-73
2024/03/28 09:13:59;;;;;;;7.53;2.63;;;13.90;68.40;;;;;;6313496;28;20059;-76
2024/03/28 09:17:00;;;;;;;8.65;2.50;;;13.90;68.30;;;;;;6295223;28;20020;-75
2024/03/28 09:20:05;;;;;;;4.47;1.90;;;14.00;68.10;;;;;;6305284;28;20121;-76
2024/03/28 09:23:07;;;;;;;3.90;2.15;;;14.00;67.90;;;;;;6319979;28;20083;-76
2024/03/28 09:26:08;;;;;;;9.88;2.40;;;14.00;67.40;;;;;;6289631;28;20028;-76
2024/03/28 09:29:10;;;;;;;8.27;1.75;;;14.00;68.20;;;;;;6311648;28;20526;-75
2024/03/28 09:32:12;;;;;;;3.40;2.47;;;14.10;68.20;;;;;;6325164;28;20015;-75
2024/03/28 09:35:13;;;;;;;7.85;2.97;;;14.10;67.60;;;;;;6314937;28;20394;-75
2024/03/28 09:38:14;;;;;;;2.92;1.70;;;14.10;67.30;;;;;;6281070;28;20086;-76
2024/03/28 09:41:28;;;;;;;5.60;1.75;;;14.00;66.90;;;;;;6314741;28;20081;-77
2024/03/28 09:44:30;;;;;;;4.13;2.47;;;14.00;66.90;;;;;;6310722;28;20028;-75
2024/03/28 09:47:33;;;;;;;5.53;2.03;;;14.00;67.20;;;;;;6311420;28;20038;-76
2024/03/28 09:50:36;;;;;;;4.50;2.13;;;14.10;67.90;;;;;;6314576;28;20023;-75
2024/03/28 09:53:38;;;;;;;7.60;2.17;;;14.30;67.70;;;;;;6320765;28;20206;-75
2024/03/28 09:56:40;;;;;;;3.63;1.88;;;14.40;67.90;;;;;;6313988;28;20119;-76
2024/03/28 09:59:41;;;;;;;5.22;2.55;;;14.60;67.80;;;;;;6310382;28;20096;-75
2024/03/28 10:03:08;;;;;;;5.53;2.83;;;14.70;66.50;;;;;;6320616;28;20065;-77
2024/03/28 10:06:08;;;;;;;5.22;2.08;;;14.60;66.00;;;;;;6309766;28;20124;-76
2024/03/28 10:09:09;;;;;;;3.78;2.00;;;14.60;66.60;;;;;;6310355;28;20038;-75
2024/03/28 10:12:16;;;;;;;7.75;2.63;;;14.70;66.40;;;;;;6314462;28;20119;-77
2024/03/28 10:15:17;;;;;;;6.65;2.38;;;14.80;66.20;;;;;;6319906;28;20012;-75
2024/03/28 10:18:18;;;;;;;2.90;1.85;;;14.90;66.50;;;;;;6311850;28;20529;-76
2024/03/28 10:21:19;;;;;;;5.53;2.63;;;15.20;66.10;;;;;;6304221;28;20038;-76
2024/03/28 10:24:20;;;;;;;6.47;3.30;;;15.30;65.10;;;;;;6312491;28;20028;-75
2024/03/28 10:27:22;;;;;;;6.38;2.40;;;15.50;65.10;;;;;;6301772;28;20156;-76
2024/03/28 10:30:25;;;;;;;8.82;3.85;;;15.70;65.10;;;;;;6301101;28;20596;-75
2024/03/28 10:33:26;;;;;;;5.63;2.45;;;15.90;65.00;;;;;;6292005;28;20483;-77
2024/03/28 10:36:27;;;;;;;2.35;1.30;;;16.20;65.00;;;;;;6313201;28;20032;-76
2024/03/28 10:39:28;;;;;;;9.27;3.45;;;16.50;65.00;;;;;;6311022;28;20024;-76
2024/03/28 10:42:36;;;;;;;1.48;1.20;;;16.80;63.20;;;;;;6316155;28;20011;-76
2024/03/28 10:45:38;;;;;;;3.88;1.90;;;16.90;59.80;;;;;;6300223;28;20017;-76
2024/03/28 10:48:43;;;;;;;4.72;1.88;;;16.90;59.30;;;;;;6279464;28;20032;-75
2024/03/28 10:51:51;;;;;;;2.25;1.65;;;17.00;60.60;;;;;;6317149;28;20016;-76
2024/03/28 10:54:59;;;;;;;2.50;1.80;;;17.20;62.10;;;;;;6284319;28;20074;-75
2024/03/28 10:58:07;;;;;;;7.03;1.80;;;17.50;60.00;;;;;;6306766;28;20073;-75
2024/03/28 11:01:08;;;;;;;4.38;2.08;;;17.70;59.70;;;;;;6308306;28;20047;-77
2024/03/28 11:04:12;;;;;;;3.58;1.73;;;17.90;60.00;;;;;;6289811;28;20031;-76
2024/03/28 11:07:13;;;;;;;5.38;1.85;;;18.10;59.40;;;;;;6305164;28;20365;-78
2024/03/28 11:10:14;;;;;;;9.30;1.95;;;18.30;59.30;;;;;;6290755;28;20150;-76
2024/03/28 11:13:16;;;;;;;6.05;2.60;;;18.40;58.70;;;;;;6315829;28;20017;-74
2024/03/28 11:16:21;;;;;;;11.35;4.30;;;18.50;58.80;;;;;;6310901;28;20008;-75
2024/03/28 11:19:22;;;;;;;7.43;2.80;;;18.60;58.70;;;;;;6285340;28;20052;-76
2024/03/28 11:22:23;;;;;;;3.88;2.05;;;18.70;59.00;;;;;;6316482;28;20351;-76
2024/03/28 11:25:32;;;;;;;6.13;2.30;;;18.80;59.10;;;;;;6309782;28;20496;-75
2024/03/28 11:28:34;;;;;;;4.97;1.70;;;19.00;59.00;;;;;;6308024;28;20047;-78
2024/03/28 11:31:35;;;;;;;2.63;1.52;;;19.00;58.90;;;;;;6309865;28;20026;-76
2024/03/28 11:34:35;;;;;;;9.18;3.00;;;19.10;58.80;;;;;;6315318;28;20008;-75
2024/03/28 11:37:37;;;;;;;2.92;1.80;;;19.40;59.30;;;;;;6301755;28;20493;-76
2024/03/28 11:40:38;;;;;;;9.07;2.22;;;19.60;59.00;;;;;;6305018;28;20024;-76
2024/03/28 11:43:39;;;;;;;4.45;1.75;;;19.80;56.50;;;;;;6311992;28;20031;-77
2024/03/28 11:46:40;;;;;;;5.78;1.60;;;19.70;55.90;;;;;;6319774;28;20020;-76
2024/03/28 11:49:41;;;;;;;2.75;1.38;;;19.70;56.90;;;;;;6304400;28;20047;-77
2024/03/28 11:52:42;;;;;;;6.35;2.67;;;20.00;56.90;;;;;;6320984;28;20107;-77
2024/03/28 11:55:47;;;;;;;7.65;3.22;;;20.30;56.10;;;;;;6312613;28;20494;-77
2024/03/28 11:58:49;;;;;;;6.05;1.73;;;20.40;55.60;;;;;;6323581;28;20570;-77
2024/03/28 12:02:01;;;;;;;2.63;1.58;;;20.40;55.00;;;;;;6314045;28;20016;-77
2024/03/28 12:05:03;;;;;;;3.13;1.58;;;20.30;55.30;;;;;;6302855;28;20447;-75
2024/03/28 12:08:05;;;;;;;4.07;2.13;;;20.20;55.20;;;;;;6293275;28;20587;-76
2024/03/28 12:11:08;;;;;;;4.95;2.42;;;20.10;53.90;;;;;;6297008;28;20486;-76
2024/03/28 12:14:09;;;;;;;4.03;1.90;;;20.00;53.80;;;;;;6315755;28;20679;-76
2024/03/28 12:17:10;;;;;;;3.03;1.70;;;20.30;54.50;;;;;;6311448;28;20033;-76
2024/03/28 12:20:20;;;;;;;2.58;1.67;;;20.70;54.10;;;;;;6313165;28;20037;-76
2024/03/28 12:23:21;;;;;;;4.80;2.08;;;21.00;53.60;;;;;;6316954;28;20080;-77
2024/03/28 12:26:23;;;;;;;4.53;1.73;;;21.10;53.10;;;;;;6319227;28;20172;-76
2024/03/28 12:29:25;;;;;;;5.00;1.90;;;21.10;52.90;;;;;;6311779;28;20520;-76
2024/03/28 12:32:28;;;;;;;4.40;2.47;;;21.20;52.70;;;;;;6293952;28;20013;-76
2024/03/28 12:35:30;;;;;;;9.23;2.13;;;21.40;52.60;;;;;;6287298;28;20078;-77
2024/03/28 12:38:32;;;;;;;5.72;1.83;;;21.80;52.10;;;;;;6311238;28;20483;-76
2024/03/28 12:41:41;;;;;;;5.03;2.33;;;21.80;52.10;;;;;;6304279;28;20092;-76
2024/03/28 12:44:42;;;;;;;4.55;2.55;;;22.10;51.50;;;;;;6271990;28;20043;-79
2024/03/28 12:47:47;;;;;;;3.88;2.20;;;22.30;50.30;;;;;;6291795;28;20029;-76
2024/03/28 12:50:49;;;;;;;2.38;1.50;;;22.80;50.20;;;;;;6275507;28;20095;-77
2024/03/28 12:53:50;;;;;;;5.55;2.03;;;22.90;49.80;;;;;;6289830;28;20160;-76
2024/03/28 12:56:51;;;;;;;2.28;1.80;;;23.50;48.80;;;;;;6294136;28;20748;-75
2024/03/28 12:59:55;;;;;;;3.00;1.50;;;24.60;47.10;;;;;;6293691;28;20518;-74
2024/03/28 13:02:57;;;;;;;2.85;1.80;;;24.60;45.50;;;;;;6288635;28;20020;-76
2024/03/28 13:05:57;;;;;;;2.55;1.35;;;24.10;45.70;;;;;;6251758;28;20376;-76
2024/03/28 13:08:58;;;;;;;4.05;1.73;;;23.40;46.60;;;;;;6301596;28;20055;-76
2024/03/28 13:11:59;;;;;;;4.43;1.58;;;23.10;47.00;;;;;;6273823;28;20024;-75
2024/03/28 13:15:00;;;;;;;3.90;1.10;;;22.70;47.10;;;;;;6308323;28;20085;-75
2024/03/28 13:18:02;;;;;;;3.00;1.60;;;22.40;47.50;;;;;;6310787;28;20020;-75
2024/03/28 13:21:03;;;;;;;1.75;1.13;;;22.20;47.60;;;;;;6300034;28;20042;-75
2024/03/28 13:24:05;;;;;;;9.18;1.35;;;22.10;47.50;;;;;;6302314;28;20065;-75
2024/03/28 13:27:07;;;;;;;2.40;1.25;;;22.00;47.30;;;;;;6284793;28;20449;-76
2024/03/28 13:30:08;;;;;;;3.30;1.20;;;21.90;47.20;;;;;;6300424;28;20076;-76
2024/03/28 13:33:09;;;;;;;4.93;1.30;;;21.80;46.80;;;;;;6302709;28;20072;-77
2024/03/28 13:36:10;;;;;;;3.47;1.02;;;21.70;46.90;;;;;;6284465;28;20020;-77
2024/03/28 13:39:10;;;;;;;3.45;1.02;;;21.60;46.30;;;;;;6280686;28;20684;-75
2024/03/28 13:42:11;;;;;;;2.05;0.70;;;21.60;45.00;;;;;;6289124;28;20111;-76
2024/03/28 13:45:12;;;;;;;0.55;0.43;;;21.60;43.90;;;;;;6288887;28;21745;-76
2024/03/28 13:48:20;;;;;;;1.30;0.60;;;21.80;40.60;;;;;;6306140;28;20043;-75
2024/03/28 13:51:22;;;;;;;0.63;0.20;;;22.00;37.80;;;;;;6305495;28;20103;-76
2024/03/28 13:54:23;;;;;;;0.40;0.40;;;22.20;31.30;;;;;;6307329;28;20051;-76
2024/03/28 13:57:24;;;;;;;0.20;0.20;;;22.10;30.40;;;;;;6307099;28;20023;-76
2024/03/28 14:00:25;;;;;;;0.77;0.30;;;22.10;32.10;;;;;;6306319;28;20537;-76
2024/03/28 14:03:26;;;;;;;0.52;0.40;;;22.30;31.70;;;;;;6291087;28;20155;-75
2024/03/28 14:06:27;;;;;;;0.98;0.35;;;22.30;31.30;;;;;;6306833;28;20113;-75
2024/03/28 14:09:28;;;;;;;3.10;0.30;;;22.30;30.90;;;;;;6292730;28;20430;-75
2024/03/28 14:12:29;;;;;;;0.75;0.38;;;22.20;31.20;;;;;;6300531;28;20043;-76
2024/03/28 14:15:31;;;;;;;0.43;0.35;;;22.20;31.80;;;;;;6284950;28;20012;-75
2024/03/28 14:18:32;;;;;;;0.30;0.30;;;22.20;32.00;;;;;;6297605;28;20069;-75
2024/03/28 14:21:33;;;;;;;1.00;0.40;;;22.10;31.20;;;;;;6275477;28;20074;-75
2024/03/28 14:24:34;;;;;;;1.08;0.30;;;22.00;29.90;;;;;;6288506;28;20516;-76
2024/03/28 14:27:35;;;;;;;0.40;0.40;;;21.90;29.30;;;;;;6289156;28;20020;-75
2024/03/28 14:30:36;;;;;;;0.73;0.30;;;21.80;30.90;;;;;;6286221;28;20104;-76
2024/03/28 14:33:38;;;;;;;0.47;0.25;;;21.80;30.80;;;;;;6296484;28;20070;-76
2024/03/28 14:36:39;;;;;;;0.38;0.20;;;21.80;28.80;;;;;;6306213;28;20020;-76
2024/03/28 14:39:40;;;;;;;4.03;0.30;;;21.70;28.80;;;;;;6282887;28;20092;-75
2024/03/28 14:42:41;;;;;;;0.50;0.20;;;21.50;27.70;;;;;;6292382;28;20431;-77
2024/03/28 14:45:42;;;;;;;0.45;0.40;;;21.20;28.70;;;;;;6288245;28;20499;-76
2024/03/28 14:48:43;;;;;;;0.82;0.13;;;21.10;27.90;;;;;;6283669;28;20020;-76
2024/03/28 14:51:44;;;;;;;0.30;0.25;;;20.90;28.10;;;;;;6282697;28;20418;-77
2024/03/28 14:54:49;;;;;;;0.30;0.30;;;20.70;28.30;;;;;;6288193;28;20012;-75
2024/03/28 14:57:50;;;;;;;0.32;0.30;;;20.60;29.00;;;;;;6307053;28;20052;-78
2024/03/28 15:00:51;;;;;;;5.38;0.32;;;20.50;29.20;;;;;;6287615;28;20017;-75
2024/03/28 15:03:52;;;;;;;0.50;0.30;;;20.40;29.30;;;;;;6290026;28;20179;-75
2024/03/28 15:06:53;;;;;;;0.20;0.20;;;20.30;29.70;;;;;;6287535;28;20523;-76
2024/03/28 15:09:54;;;;;;;1.90;1.08;;;20.30;30.00;;;;;;6294530;28;20125;-76
2024/03/28 15:12:55;;;;;;;1.75;0.52;;;20.20;30.00;;;;;;6268093;28;20115;-76
2024/03/28 15:15:55;;;;;;;1.55;0.75;;;20.30;29.70;;;;;;6271186;28;20036;-75
2024/03/28 15:18:57;;;;;;;0.40;0.20;;;20.30;30.00;;;;;;6290068;28;21164;-76
2024/03/28 15:21:58;;;;;;;0.10;0.10;;;20.30;30.20;;;;;;6299271;28;20038;-76
2024/03/28 15:24:59;;;;;;;1.40;0.38;;;20.10;30.30;;;;;;6294737;28;20032;-76
2024/03/28 15:28:01;;;;;;;0.20;0.20;;;20.30;30.10;;;;;;6300156;28;20081;-76
2024/03/28 15:31:02;;;;;;;2.42;0.63;;;20.30;30.60;;;;;;6296140;28;20016;-77
2024/03/28 15:34:03;;;;;;;8.05;0.50;;;20.40;30.40;;;;;;6297327;28;20027;-76
2024/03/28 15:37:04;;;;;;;0.70;0.57;;;20.40;30.40;;;;;;6276708;28;20079;-76
2024/03/28 15:40:06;;;;;;;0.82;0.20;;;20.40;30.10;;;;;;6296461;28;20020;-76
2024/03/28 15:43:07;;;;;;;1.17;0.30;;;20.40;30.00;;;;;;6294650;28;20028;-77
2024/03/28 15:46:11;;;;;;;0.68;0.35;;;20.30;29.60;;;;;;6295450;28;20069;-77
2024/03/28 15:49:12;;;;;;;0.40;0.30;;;20.20;29.90;;;;;;6294189;28;20047;-76
2024/03/28 15:52:13;;;;;;;0.63;0.30;;;20.20;30.40;;;;;;6303088;28;20047;-77